sensor_id;sensor_type;location;lat;lon;timestamp;P1;durP1;ratioP1;P2;durP2;ratioP2
25391;SDS011;13329;48.402;11.718;2022-11-04T00:01:14;15.20;;;7.30;;
25391;SDS011;13329;48.402;11.718;2022-11-04T00:03:39;14.02;;;6.70;;
25391;SDS011;13329;48.402;11.718;2022-11-04T00:06:04;11.13;;;4.73;;
25391;SDS011;13329;48.402;11.718;2022-11-04T00:08:30;10.50;;;4.63;;
25391;SDS011;13329;48.402;11.718;2022-11-04T00:10:55;11.07;;;5.30;;
25391;SDS011;13329;48.402;11.718;2022-11-04T00:13:39;8.90;;;3.67;;
25391;SDS011;13329;48.402;11.718;2022-11-04T00:16:05;8.55;;;4.68;;
25391;SDS011;13329;48.402;11.718;2022-11-04T00:18:49;7.90;;;3.78;;
25391;SDS011;13329;48.402;11.718;2022-11-04T00:21:14;8.30;;;4.88;;
25391;SDS011;13329;48.402;11.718;2022-11-04T00:26:41;7.43;;;3.30;;
25391;SDS011;13329;48.402;11.718;2022-11-04T00:29:25;7.88;;;3.53;;
25391;SDS011;13329;48.402;11.718;2022-11-04T00:31:51;12.27;;;4.27;;
25391;SDS011;13329;48.402;11.718;2022-11-04T00:36:59;7.53;;;4.38;;
25391;SDS011;13329;48.402;11.718;2022-11-04T00:39:26;8.00;;;3.95;;
25391;SDS011;13329;48.402;11.718;2022-11-04T00:41:52;7.43;;;4.23;;
25391;SDS011;13329;48.402;11.718;2022-11-04T00:44:17;6.53;;;3.53;;
25391;SDS011;13329;48.402;11.718;2022-11-04T00:46:42;7.43;;;3.90;;
25391;SDS011;13329;48.402;11.718;2022-11-04T00:49:07;8.33;;;3.97;;
25391;SDS011;13329;48.402;11.718;2022-11-04T00:51:32;4.73;;;2.73;;
25391;SDS011;13329;48.402;11.718;2022-11-04T00:53:57;7.93;;;4.10;;
25391;SDS011;13329;48.402;11.718;2022-11-04T00:56:23;5.15;;;3.15;;
25391;SDS011;13329;48.402;11.718;2022-11-04T00:58:48;6.78;;;3.25;;
25391;SDS011;13329;48.402;11.718;2022-11-04T01:01:14;7.00;;;2.72;;
25391;SDS011;13329;48.402;11.718;2022-11-04T01:03:43;5.32;;;2.03;;
25391;SDS011;13329;48.402;11.718;2022-11-04T01:06:08;4.80;;;2.42;;
25391;SDS011;13329;48.402;11.718;2022-11-04T01:08:33;4.43;;;1.97;;
25391;SDS011;13329;48.402;11.718;2022-11-04T01:11:02;4.60;;;2.33;;
25391;SDS011;13329;48.402;11.718;2022-11-04T01:13:28;8.35;;;3.60;;
25391;SDS011;13329;48.402;11.718;2022-11-04T01:15:53;5.10;;;2.67;;
25391;SDS011;13329;48.402;11.718;2022-11-04T01:18:18;3.43;;;1.63;;
25391;SDS011;13329;48.402;11.718;2022-11-04T01:20:43;7.23;;;2.73;;
25391;SDS011;13329;48.402;11.718;2022-11-04T01:23:08;4.67;;;2.27;;
25391;SDS011;13329;48.402;11.718;2022-11-04T01:25:36;5.40;;;2.60;;
25391;SDS011;13329;48.402;11.718;2022-11-04T01:28:02;2.15;;;0.98;;
25391;SDS011;13329;48.402;11.718;2022-11-04T01:30:28;2.50;;;1.33;;
25391;SDS011;13329;48.402;11.718;2022-11-04T01:32:53;2.43;;;1.53;;
25391;SDS011;13329;48.402;11.718;2022-11-04T01:35:18;4.07;;;2.23;;
25391;SDS011;13329;48.402;11.718;2022-11-04T01:37:43;2.83;;;1.73;;
25391;SDS011;13329;48.402;11.718;2022-11-04T01:40:08;3.27;;;1.83;;
25391;SDS011;13329;48.402;11.718;2022-11-04T01:42:34;4.43;;;1.83;;
25391;SDS011;13329;48.402;11.718;2022-11-04T01:44:59;5.67;;;2.83;;
25391;SDS011;13329;48.402;11.718;2022-11-04T01:50:06;7.32;;;2.60;;
25391;SDS011;13329;48.402;11.718;2022-11-04T01:52:52;5.57;;;2.05;;
25391;SDS011;13329;48.402;11.718;2022-11-04T01:55:20;4.00;;;1.90;;
25391;SDS011;13329;48.402;11.718;2022-11-04T01:57:48;3.35;;;1.55;;
25391;SDS011;13329;48.402;11.718;2022-11-04T02:00:14;4.30;;;1.90;;
25391;SDS011;13329;48.402;11.718;2022-11-04T02:02:43;4.07;;;1.60;;
25391;SDS011;13329;48.402;11.718;2022-11-04T02:05:10;2.60;;;1.42;;
25391;SDS011;13329;48.402;11.718;2022-11-04T02:07:35;3.27;;;2.00;;
25391;SDS011;13329;48.402;11.718;2022-11-04T02:10:00;3.80;;;1.75;;
25391;SDS011;13329;48.402;11.718;2022-11-04T02:12:26;2.75;;;1.50;;
25391;SDS011;13329;48.402;11.718;2022-11-04T02:15:10;3.28;;;1.77;;
25391;SDS011;13329;48.402;11.718;2022-11-04T02:17:45;3.53;;;1.90;;
25391;SDS011;13329;48.402;11.718;2022-11-04T02:30:23;4.15;;;1.67;;
25391;SDS011;13329;48.402;11.718;2022-11-04T02:35:20;5.53;;;1.98;;
25391;SDS011;13329;48.402;11.718;2022-11-04T02:37:53;3.08;;;1.88;;
25391;SDS011;13329;48.402;11.718;2022-11-04T02:40:29;2.63;;;0.55;;
25391;SDS011;13329;48.402;11.718;2022-11-04T02:42:57;3.38;;;1.30;;
25391;SDS011;13329;48.402;11.718;2022-11-04T02:45:37;2.38;;;1.08;;
25391;SDS011;13329;48.402;11.718;2022-11-04T02:48:08;2.38;;;1.48;;
25391;SDS011;13329;48.402;11.718;2022-11-04T02:50:41;1.38;;;0.77;;
25391;SDS011;13329;48.402;11.718;2022-11-04T02:55:44;1.13;;;0.60;;
25391;SDS011;13329;48.402;11.718;2022-11-04T02:58:19;9.48;;;2.00;;
25391;SDS011;13329;48.402;11.718;2022-11-04T03:00:45;2.78;;;1.27;;
25391;SDS011;13329;48.402;11.718;2022-11-04T03:03:13;2.47;;;0.98;;
25391;SDS011;13329;48.402;11.718;2022-11-04T03:05:39;1.40;;;0.80;;
25391;SDS011;13329;48.402;11.718;2022-11-04T03:08:10;1.35;;;0.90;;
25391;SDS011;13329;48.402;11.718;2022-11-04T03:10:42;2.00;;;0.90;;
25391;SDS011;13329;48.402;11.718;2022-11-04T03:15:36;1.42;;;0.85;;
25391;SDS011;13329;48.402;11.718;2022-11-04T03:18:11;1.15;;;0.60;;
25391;SDS011;13329;48.402;11.718;2022-11-04T03:20:39;3.30;;;1.88;;
25391;SDS011;13329;48.402;11.718;2022-11-04T03:23:05;1.35;;;0.90;;
25391;SDS011;13329;48.402;11.718;2022-11-04T03:25:38;2.65;;;1.08;;
25391;SDS011;13329;48.402;11.718;2022-11-04T03:28:11;2.67;;;0.70;;
25391;SDS011;13329;48.402;11.718;2022-11-04T03:30:41;1.85;;;1.00;;
25391;SDS011;13329;48.402;11.718;2022-11-04T03:35:35;1.48;;;0.70;;
25391;SDS011;13329;48.402;11.718;2022-11-04T03:38:00;2.50;;;0.80;;
25391;SDS011;13329;48.402;11.718;2022-11-04T03:40:26;0.95;;;0.63;;
25391;SDS011;13329;48.402;11.718;2022-11-04T03:42:55;1.47;;;0.47;;
25391;SDS011;13329;48.402;11.718;2022-11-04T03:45:22;1.15;;;0.60;;
25391;SDS011;13329;48.402;11.718;2022-11-04T03:47:47;0.95;;;0.60;;
25391;SDS011;13329;48.402;11.718;2022-11-04T03:50:17;1.45;;;0.50;;
25391;SDS011;13329;48.402;11.718;2022-11-04T03:52:43;1.73;;;0.85;;
25391;SDS011;13329;48.402;11.718;2022-11-04T03:55:09;1.10;;;0.63;;
25391;SDS011;13329;48.402;11.718;2022-11-04T04:14:05;0.73;;;0.43;;
25391;SDS011;13329;48.402;11.718;2022-11-04T04:18:26;1.77;;;0.60;;
25391;SDS011;13329;48.402;11.718;2022-11-04T04:20:54;0.47;;;0.40;;
25391;SDS011;13329;48.402;11.718;2022-11-04T04:23:22;0.63;;;0.30;;
25391;SDS011;13329;48.402;11.718;2022-11-04T04:26:07;2.45;;;0.57;;
25391;SDS011;13329;48.402;11.718;2022-11-04T04:28:52;0.80;;;0.50;;
25391;SDS011;13329;48.402;11.718;2022-11-04T04:31:18;0.50;;;0.40;;
25391;SDS011;13329;48.402;11.718;2022-11-04T04:34:03;1.15;;;0.80;;
25391;SDS011;13329;48.402;11.718;2022-11-04T04:36:28;0.93;;;0.60;;
25391;SDS011;13329;48.402;11.718;2022-11-04T04:38:55;0.70;;;0.45;;
25391;SDS011;13329;48.402;11.718;2022-11-04T04:41:39;1.15;;;0.60;;
25391;SDS011;13329;48.402;11.718;2022-11-04T04:44:25;0.77;;;0.43;;
25391;SDS011;13329;48.402;11.718;2022-11-04T04:47:11;0.85;;;0.50;;
25391;SDS011;13329;48.402;11.718;2022-11-04T04:52:15;0.50;;;0.30;;
25391;SDS011;13329;48.402;11.718;2022-11-04T04:54:40;0.50;;;0.40;;
25391;SDS011;13329;48.402;11.718;2022-11-04T04:57:05;0.77;;;0.60;;
25391;SDS011;13329;48.402;11.718;2022-11-04T04:59:30;1.90;;;0.60;;
25391;SDS011;13329;48.402;11.718;2022-11-04T05:01:55;1.07;;;0.43;;
25391;SDS011;13329;48.402;11.718;2022-11-04T05:04:20;0.40;;;0.40;;
25391;SDS011;13329;48.402;11.718;2022-11-04T05:06:46;1.33;;;0.57;;
25391;SDS011;13329;48.402;11.718;2022-11-04T05:09:11;0.63;;;0.50;;
25391;SDS011;13329;48.402;11.718;2022-11-04T05:11:36;1.30;;;0.40;;
25391;SDS011;13329;48.402;11.718;2022-11-04T05:14:01;1.63;;;0.50;;
25391;SDS011;13329;48.402;11.718;2022-11-04T05:16:26;0.80;;;0.50;;
25391;SDS011;13329;48.402;11.718;2022-11-04T05:18:52;1.55;;;0.55;;
25391;SDS011;13329;48.402;11.718;2022-11-04T05:21:17;1.63;;;0.70;;
25391;SDS011;13329;48.402;11.718;2022-11-04T05:23:43;0.75;;;0.55;;
25391;SDS011;13329;48.402;11.718;2022-11-04T05:26:08;1.47;;;0.50;;
25391;SDS011;13329;48.402;11.718;2022-11-04T05:28:34;0.63;;;0.35;;
25391;SDS011;13329;48.402;11.718;2022-11-04T05:31:03;0.87;;;0.40;;
25391;SDS011;13329;48.402;11.718;2022-11-04T05:33:28;0.30;;;0.30;;
25391;SDS011;13329;48.402;11.718;2022-11-04T05:35:53;0.83;;;0.50;;
25391;SDS011;13329;48.402;11.718;2022-11-04T05:38:18;1.20;;;0.60;;
25391;SDS011;13329;48.402;11.718;2022-11-04T05:40:44;2.80;;;0.60;;
25391;SDS011;13329;48.402;11.718;2022-11-04T05:43:09;0.60;;;0.40;;
25391;SDS011;13329;48.402;11.718;2022-11-04T05:45:34;0.67;;;0.47;;
25391;SDS011;13329;48.402;11.718;2022-11-04T05:47:59;0.63;;;0.40;;
25391;SDS011;13329;48.402;11.718;2022-11-04T05:50:25;1.63;;;0.52;;
25391;SDS011;13329;48.402;11.718;2022-11-04T05:52:50;0.73;;;0.40;;
25391;SDS011;13329;48.402;11.718;2022-11-04T05:55:15;1.00;;;0.70;;
25391;SDS011;13329;48.402;11.718;2022-11-04T05:57:41;0.83;;;0.50;;
25391;SDS011;13329;48.402;11.718;2022-11-04T06:00:06;1.50;;;0.50;;
25391;SDS011;13329;48.402;11.718;2022-11-04T06:02:31;0.77;;;0.55;;
25391;SDS011;13329;48.402;11.718;2022-11-04T06:04:57;1.23;;;0.70;;
25391;SDS011;13329;48.402;11.718;2022-11-04T06:07:22;1.05;;;0.73;;
25391;SDS011;13329;48.402;11.718;2022-11-04T06:09:47;1.30;;;0.40;;
25391;SDS011;13329;48.402;11.718;2022-11-04T06:12:13;0.50;;;0.30;;
25391;SDS011;13329;48.402;11.718;2022-11-04T06:14:41;0.45;;;0.43;;
25391;SDS011;13329;48.402;11.718;2022-11-04T06:17:07;0.65;;;0.40;;
25391;SDS011;13329;48.402;11.718;2022-11-04T06:19:32;3.80;;;0.30;;
25391;SDS011;13329;48.402;11.718;2022-11-04T06:21:58;0.60;;;0.47;;
25391;SDS011;13329;48.402;11.718;2022-11-04T06:24:24;0.43;;;0.28;;
25391;SDS011;13329;48.402;11.718;2022-11-04T06:26:49;0.37;;;0.37;;
25391;SDS011;13329;48.402;11.718;2022-11-04T06:29:14;0.70;;;0.50;;
25391;SDS011;13329;48.402;11.718;2022-11-04T06:31:39;1.07;;;0.53;;
25391;SDS011;13329;48.402;11.718;2022-11-04T06:34:04;1.80;;;0.53;;
25391;SDS011;13329;48.402;11.718;2022-11-04T06:36:30;0.90;;;0.40;;
25391;SDS011;13329;48.402;11.718;2022-11-04T06:38:55;0.57;;;0.40;;
25391;SDS011;13329;48.402;11.718;2022-11-04T06:41:20;0.80;;;0.60;;
25391;SDS011;13329;48.402;11.718;2022-11-04T06:43:45;1.37;;;0.20;;
25391;SDS011;13329;48.402;11.718;2022-11-04T06:48:54;0.50;;;0.30;;
25391;SDS011;13329;48.402;11.718;2022-11-04T06:51:20;2.13;;;0.63;;
25391;SDS011;13329;48.402;11.718;2022-11-04T06:53:55;1.00;;;0.30;;
25391;SDS011;13329;48.402;11.718;2022-11-04T06:56:20;1.93;;;0.53;;
25391;SDS011;13329;48.402;11.718;2022-11-04T06:58:46;3.40;;;0.70;;
25391;SDS011;13329;48.402;11.718;2022-11-04T07:01:11;0.85;;;0.50;;
25391;SDS011;13329;48.402;11.718;2022-11-04T07:03:36;1.40;;;0.50;;
25391;SDS011;13329;48.402;11.718;2022-11-04T07:06:08;1.17;;;0.60;;
25391;SDS011;13329;48.402;11.718;2022-11-04T07:08:34;0.90;;;0.43;;
25391;SDS011;13329;48.402;11.718;2022-11-04T07:10:59;0.73;;;0.40;;
25391;SDS011;13329;48.402;11.718;2022-11-04T07:13:25;3.25;;;0.80;;
25391;SDS011;13329;48.402;11.718;2022-11-04T07:15:50;1.00;;;0.60;;
25391;SDS011;13329;48.402;11.718;2022-11-04T07:18:15;2.33;;;0.50;;
25391;SDS011;13329;48.402;11.718;2022-11-04T07:20:40;1.75;;;0.50;;
25391;SDS011;13329;48.402;11.718;2022-11-04T07:23:06;1.57;;;0.60;;
25391;SDS011;13329;48.402;11.718;2022-11-04T07:25:31;1.47;;;0.60;;
25391;SDS011;13329;48.402;11.718;2022-11-04T07:27:56;1.20;;;0.50;;
25391;SDS011;13329;48.402;11.718;2022-11-04T07:30:21;0.87;;;0.63;;
25391;SDS011;13329;48.402;11.718;2022-11-04T07:32:47;2.53;;;0.45;;
25391;SDS011;13329;48.402;11.718;2022-11-04T07:35:12;1.37;;;0.80;;
25391;SDS011;13329;48.402;11.718;2022-11-04T07:37:37;1.27;;;0.88;;
25391;SDS011;13329;48.402;11.718;2022-11-04T07:40:04;2.28;;;0.82;;
25391;SDS011;13329;48.402;11.718;2022-11-04T07:42:29;2.22;;;0.60;;
25391;SDS011;13329;48.402;11.718;2022-11-04T07:44:54;2.70;;;0.97;;
25391;SDS011;13329;48.402;11.718;2022-11-04T07:47:19;0.93;;;0.60;;
25391;SDS011;13329;48.402;11.718;2022-11-04T07:49:45;2.13;;;0.70;;
25391;SDS011;13329;48.402;11.718;2022-11-04T07:52:10;1.30;;;0.70;;
25391;SDS011;13329;48.402;11.718;2022-11-04T07:54:35;3.17;;;0.70;;
25391;SDS011;13329;48.402;11.718;2022-11-04T07:57:00;2.60;;;0.70;;
25391;SDS011;13329;48.402;11.718;2022-11-04T07:59:25;1.63;;;0.60;;
25391;SDS011;13329;48.402;11.718;2022-11-04T08:01:51;1.17;;;0.68;;
25391;SDS011;13329;48.402;11.718;2022-11-04T08:04:16;1.70;;;0.60;;
25391;SDS011;13329;48.402;11.718;2022-11-04T08:06:41;1.15;;;0.70;;
25391;SDS011;13329;48.402;11.718;2022-11-04T08:09:07;2.43;;;0.87;;
25391;SDS011;13329;48.402;11.718;2022-11-04T08:11:32;2.53;;;0.80;;
25391;SDS011;13329;48.402;11.718;2022-11-04T08:13:57;2.60;;;0.90;;
25391;SDS011;13329;48.402;11.718;2022-11-04T08:16:22;2.53;;;1.20;;
25391;SDS011;13329;48.402;11.718;2022-11-04T08:18:48;2.05;;;1.10;;
25391;SDS011;13329;48.402;11.718;2022-11-04T08:21:15;1.80;;;1.00;;
25391;SDS011;13329;48.402;11.718;2022-11-04T08:23:41;5.55;;;1.38;;
25391;SDS011;13329;48.402;11.718;2022-11-04T08:26:10;3.40;;;1.40;;
25391;SDS011;13329;48.402;11.718;2022-11-04T08:28:35;3.53;;;1.25;;
25391;SDS011;13329;48.402;11.718;2022-11-04T08:31:02;1.75;;;1.15;;
25391;SDS011;13329;48.402;11.718;2022-11-04T08:33:29;4.82;;;1.30;;
25391;SDS011;13329;48.402;11.718;2022-11-04T08:35:57;3.40;;;1.90;;
25391;SDS011;13329;48.402;11.718;2022-11-04T08:38:23;5.50;;;2.05;;
25391;SDS011;13329;48.402;11.718;2022-11-04T08:40:49;3.67;;;2.15;;
25391;SDS011;13329;48.402;11.718;2022-11-04T08:43:14;3.38;;;1.90;;
25391;SDS011;13329;48.402;11.718;2022-11-04T08:45:43;3.63;;;1.93;;
25391;SDS011;13329;48.402;11.718;2022-11-04T08:48:09;5.28;;;1.92;;
25391;SDS011;13329;48.402;11.718;2022-11-04T08:50:34;3.63;;;1.67;;
25391;SDS011;13329;48.402;11.718;2022-11-04T08:52:59;1.77;;;1.10;;
25391;SDS011;13329;48.402;11.718;2022-11-04T08:55:27;1.98;;;1.00;;
25391;SDS011;13329;48.402;11.718;2022-11-04T08:57:52;4.10;;;1.05;;
25391;SDS011;13329;48.402;11.718;2022-11-04T09:00:18;2.03;;;0.90;;
25391;SDS011;13329;48.402;11.718;2022-11-04T09:02:43;2.27;;;1.30;;
25391;SDS011;13329;48.402;11.718;2022-11-04T09:05:08;2.83;;;1.50;;
25391;SDS011;13329;48.402;11.718;2022-11-04T09:07:35;3.37;;;1.37;;
25391;SDS011;13329;48.402;11.718;2022-11-04T09:10:01;2.10;;;1.30;;
25391;SDS011;13329;48.402;11.718;2022-11-04T09:12:26;2.10;;;1.20;;
25391;SDS011;13329;48.402;11.718;2022-11-04T09:14:52;1.57;;;0.80;;
25391;SDS011;13329;48.402;11.718;2022-11-04T09:17:17;1.55;;;0.80;;
25391;SDS011;13329;48.402;11.718;2022-11-04T09:19:42;1.30;;;0.80;;
25391;SDS011;13329;48.402;11.718;2022-11-04T09:22:07;4.10;;;1.20;;
25391;SDS011;13329;48.402;11.718;2022-11-04T09:24:32;1.50;;;0.98;;
25391;SDS011;13329;48.402;11.718;2022-11-04T09:26:58;1.13;;;0.83;;
25391;SDS011;13329;48.402;11.718;2022-11-04T09:29:23;2.28;;;0.80;;
25391;SDS011;13329;48.402;11.718;2022-11-04T09:31:48;2.37;;;1.00;;
25391;SDS011;13329;48.402;11.718;2022-11-04T09:34:14;1.73;;;1.05;;
25391;SDS011;13329;48.402;11.718;2022-11-04T09:36:39;1.50;;;0.77;;
25391;SDS011;13329;48.402;11.718;2022-11-04T09:39:04;1.00;;;0.80;;
25391;SDS011;13329;48.402;11.718;2022-11-04T09:46:48;2.55;;;1.10;;
25391;SDS011;13329;48.402;11.718;2022-11-04T09:49:15;1.60;;;0.98;;
25391;SDS011;13329;48.402;11.718;2022-11-04T09:51:42;1.83;;;0.80;;
25391;SDS011;13329;48.402;11.718;2022-11-04T09:54:11;1.83;;;0.95;;
25391;SDS011;13329;48.402;11.718;2022-11-04T09:56:41;1.15;;;0.90;;
25391;SDS011;13329;48.402;11.718;2022-11-04T09:59:08;1.85;;;0.95;;
25391;SDS011;13329;48.402;11.718;2022-11-04T10:01:42;1.67;;;0.88;;
25391;SDS011;13329;48.402;11.718;2022-11-04T10:04:19;1.98;;;1.08;;
25391;SDS011;13329;48.402;11.718;2022-11-04T10:06:55;1.77;;;1.00;;
25391;SDS011;13329;48.402;11.718;2022-11-04T10:09:26;1.90;;;1.10;;
25391;SDS011;13329;48.402;11.718;2022-11-04T10:22:27;1.83;;;1.10;;
25391;SDS011;13329;48.402;11.718;2022-11-04T10:25:00;1.10;;;0.70;;
25391;SDS011;13329;48.402;11.718;2022-11-04T10:27:31;1.92;;;0.90;;
25391;SDS011;13329;48.402;11.718;2022-11-04T10:29:58;3.40;;;1.13;;
25391;SDS011;13329;48.402;11.718;2022-11-04T10:32:34;1.20;;;1.10;;
25391;SDS011;13329;48.402;11.718;2022-11-04T10:35:02;2.60;;;0.85;;
25391;SDS011;13329;48.402;11.718;2022-11-04T10:37:29;1.38;;;0.90;;
25391;SDS011;13329;48.402;11.718;2022-11-04T10:40:00;2.97;;;1.17;;
25391;SDS011;13329;48.402;11.718;2022-11-04T10:42:30;1.52;;;0.82;;
25391;SDS011;13329;48.402;11.718;2022-11-04T10:44:56;1.63;;;0.75;;
25391;SDS011;13329;48.402;11.718;2022-11-04T10:47:25;5.03;;;1.20;;
25391;SDS011;13329;48.402;11.718;2022-11-04T10:52:36;2.53;;;1.00;;
25391;SDS011;13329;48.402;11.718;2022-11-04T10:55:02;1.27;;;1.00;;
25391;SDS011;13329;48.402;11.718;2022-11-04T10:57:28;1.02;;;0.88;;
25391;SDS011;13329;48.402;11.718;2022-11-04T10:59:57;2.20;;;0.90;;
25391;SDS011;13329;48.402;11.718;2022-11-04T11:07:53;1.63;;;1.13;;
25391;SDS011;13329;48.402;11.718;2022-11-04T11:10:22;2.17;;;1.20;;
25391;SDS011;13329;48.402;11.718;2022-11-04T11:12:58;3.22;;;1.42;;
25391;SDS011;13329;48.402;11.718;2022-11-04T11:18:00;1.70;;;1.00;;
25391;SDS011;13329;48.402;11.718;2022-11-04T11:20:34;4.28;;;0.90;;
25391;SDS011;13329;48.402;11.718;2022-11-04T11:23:02;5.32;;;1.05;;
25391;SDS011;13329;48.402;11.718;2022-11-04T11:25:29;2.03;;;1.10;;
25391;SDS011;13329;48.402;11.718;2022-11-04T11:28:02;3.28;;;1.20;;
25391;SDS011;13329;48.402;11.718;2022-11-04T11:32:59;2.33;;;1.13;;
25391;SDS011;13329;48.402;11.718;2022-11-04T11:35:26;2.00;;;1.10;;
25391;SDS011;13329;48.402;11.718;2022-11-04T11:37:52;2.42;;;1.30;;
25391;SDS011;13329;48.402;11.718;2022-11-04T11:40:36;1.52;;;1.08;;
25391;SDS011;13329;48.402;11.718;2022-11-04T11:45:27;1.40;;;0.95;;
25391;SDS011;13329;48.402;11.718;2022-11-04T11:47:53;3.10;;;1.30;;
25391;SDS011;13329;48.402;11.718;2022-11-04T11:50:22;1.60;;;1.00;;
25391;SDS011;13329;48.402;11.718;2022-11-04T11:53:06;2.08;;;1.15;;
25391;SDS011;13329;48.402;11.718;2022-11-04T11:55:35;2.33;;;1.23;;
25391;SDS011;13329;48.402;11.718;2022-11-04T12:00:45;3.13;;;1.33;;
25391;SDS011;13329;48.402;11.718;2022-11-04T12:10:57;3.28;;;1.48;;
25391;SDS011;13329;48.402;11.718;2022-11-04T12:13:25;2.70;;;1.17;;
25391;SDS011;13329;48.402;11.718;2022-11-04T12:16:09;1.95;;;1.40;;
25391;SDS011;13329;48.402;11.718;2022-11-04T12:18:48;2.80;;;1.27;;
25391;SDS011;13329;48.402;11.718;2022-11-04T12:21:18;4.55;;;1.45;;
25391;SDS011;13329;48.402;11.718;2022-11-04T12:26:35;2.97;;;1.60;;
25391;SDS011;13329;48.402;11.718;2022-11-04T12:29:22;3.60;;;1.67;;
25391;SDS011;13329;48.402;11.718;2022-11-04T12:31:57;3.05;;;1.35;;
25391;SDS011;13329;48.402;11.718;2022-11-04T12:34:41;1.92;;;1.30;;
25391;SDS011;13329;48.402;11.718;2022-11-04T12:42:34;2.63;;;1.42;;
25391;SDS011;13329;48.402;11.718;2022-11-04T12:47:47;2.50;;;1.60;;
25391;SDS011;13329;48.402;11.718;2022-11-04T12:53:04;2.30;;;1.60;;
25391;SDS011;13329;48.402;11.718;2022-11-04T12:58:16;3.75;;;1.50;;
25391;SDS011;13329;48.402;11.718;2022-11-04T13:00:47;2.20;;;1.23;;
25391;SDS011;13329;48.402;11.718;2022-11-04T13:05:43;2.65;;;1.58;;
25391;SDS011;13329;48.402;11.718;2022-11-04T13:08:13;3.70;;;2.10;;
25391;SDS011;13329;48.402;11.718;2022-11-04T13:10:48;4.38;;;2.03;;
25391;SDS011;13329;48.402;11.718;2022-11-04T13:13:20;3.38;;;2.03;;
25391;SDS011;13329;48.402;11.718;2022-11-04T13:15:56;3.78;;;2.17;;
25391;SDS011;13329;48.402;11.718;2022-11-04T13:18:22;7.28;;;2.42;;
25391;SDS011;13329;48.402;11.718;2022-11-04T13:21:09;9.80;;;3.38;;
25391;SDS011;13329;48.402;11.718;2022-11-04T13:26:05;3.50;;;1.80;;
25391;SDS011;13329;48.402;11.718;2022-11-04T13:28:33;2.55;;;1.83;;
25391;SDS011;13329;48.402;11.718;2022-11-04T13:34:05;2.92;;;1.83;;
25391;SDS011;13329;48.402;11.718;2022-11-04T13:44:28;2.60;;;1.63;;
25391;SDS011;13329;48.402;11.718;2022-11-04T13:46:56;5.90;;;3.53;;
25391;SDS011;13329;48.402;11.718;2022-11-04T13:49:40;3.22;;;2.28;;
25391;SDS011;13329;48.402;11.718;2022-11-04T13:52:07;2.83;;;1.90;;
25391;SDS011;13329;48.402;11.718;2022-11-04T13:57:22;3.65;;;1.73;;
25391;SDS011;13329;48.402;11.718;2022-11-04T14:13:53;5.78;;;2.30;;
25391;SDS011;13329;48.402;11.718;2022-11-04T14:16:05;2.95;;;1.88;;
25391;SDS011;13329;48.402;11.718;2022-11-04T14:18:40;2.28;;;1.67;;
25391;SDS011;13329;48.402;11.718;2022-11-04T14:23:31;7.00;;;2.60;;
25391;SDS011;13329;48.402;11.718;2022-11-04T14:26:00;3.95;;;1.88;;
25391;SDS011;13329;48.402;11.718;2022-11-04T14:28:27;3.88;;;2.30;;
25391;SDS011;13329;48.402;11.718;2022-11-04T14:30:56;3.17;;;2.25;;
25391;SDS011;13329;48.402;11.718;2022-11-04T14:35:48;4.77;;;2.07;;
25391;SDS011;13329;48.402;11.718;2022-11-04T14:38:19;3.33;;;1.77;;
25391;SDS011;13329;48.402;11.718;2022-11-04T14:40:50;2.85;;;1.80;;
25391;SDS011;13329;48.402;11.718;2022-11-04T14:43:27;2.42;;;1.70;;
25391;SDS011;13329;48.402;11.718;2022-11-04T14:45:54;2.70;;;1.67;;
25391;SDS011;13329;48.402;11.718;2022-11-04T14:48:19;3.55;;;1.83;;
25391;SDS011;13329;48.402;11.718;2022-11-04T14:50:46;2.40;;;1.70;;
25391;SDS011;13329;48.402;11.718;2022-11-04T14:53:14;4.47;;;1.75;;
25391;SDS011;13329;48.402;11.718;2022-11-04T14:55:43;2.75;;;1.40;;
25391;SDS011;13329;48.402;11.718;2022-11-04T14:58:24;1.83;;;1.40;;
25391;SDS011;13329;48.402;11.718;2022-11-04T15:00:54;1.60;;;1.30;;
25391;SDS011;13329;48.402;11.718;2022-11-04T15:03:23;3.03;;;1.50;;
25391;SDS011;13329;48.402;11.718;2022-11-04T15:05:50;2.08;;;1.23;;
25391;SDS011;13329;48.402;11.718;2022-11-04T15:10:50;1.98;;;0.98;;
25391;SDS011;13329;48.402;11.718;2022-11-04T15:13:19;2.17;;;1.15;;
25391;SDS011;13329;48.402;11.718;2022-11-04T15:15:44;2.83;;;1.00;;
25391;SDS011;13329;48.402;11.718;2022-11-04T15:18:15;3.03;;;1.35;;
25391;SDS011;13329;48.402;11.718;2022-11-04T15:21:14;1.98;;;1.40;;
25391;SDS011;13329;48.402;11.718;2022-11-04T15:23:40;3.42;;;1.30;;
25391;SDS011;13329;48.402;11.718;2022-11-04T15:26:06;2.60;;;1.42;;
25391;SDS011;13329;48.402;11.718;2022-11-04T15:28:33;4.97;;;1.40;;
25391;SDS011;13329;48.402;11.718;2022-11-04T15:31:49;2.42;;;1.38;;
25391;SDS011;13329;48.402;11.718;2022-11-04T15:33:48;2.38;;;1.05;;
25391;SDS011;13329;48.402;11.718;2022-11-04T15:36:18;2.45;;;1.23;;
25391;SDS011;13329;48.402;11.718;2022-11-04T15:38:45;1.85;;;1.20;;
25391;SDS011;13329;48.402;11.718;2022-11-04T15:41:12;3.30;;;1.73;;
25391;SDS011;13329;48.402;11.718;2022-11-04T15:43:56;3.88;;;2.15;;
25391;SDS011;13329;48.402;11.718;2022-11-04T15:46:22;3.25;;;1.67;;
25391;SDS011;13329;48.402;11.718;2022-11-04T15:48:58;1.58;;;1.15;;
25391;SDS011;13329;48.402;11.718;2022-11-04T15:51:23;1.75;;;1.13;;
25391;SDS011;13329;48.402;11.718;2022-11-04T15:56:15;3.33;;;1.20;;
25391;SDS011;13329;48.402;11.718;2022-11-04T15:58:43;4.63;;;1.90;;
25391;SDS011;13329;48.402;11.718;2022-11-04T16:01:08;2.60;;;1.67;;
25391;SDS011;13329;48.402;11.718;2022-11-04T16:03:36;5.65;;;2.33;;
25391;SDS011;13329;48.402;11.718;2022-11-04T16:06:06;4.53;;;1.67;;
25391;SDS011;13329;48.402;11.718;2022-11-04T16:08:31;5.72;;;3.20;;
25391;SDS011;13329;48.402;11.718;2022-11-04T16:13:38;5.35;;;1.38;;
25391;SDS011;13329;48.402;11.718;2022-11-04T16:16:05;3.85;;;2.08;;
25391;SDS011;13329;48.402;11.718;2022-11-04T16:18:34;2.67;;;1.20;;
25391;SDS011;13329;48.402;11.718;2022-11-04T16:21:08;2.33;;;1.30;;
25391;SDS011;13329;48.402;11.718;2022-11-04T16:23:36;4.00;;;1.60;;
25391;SDS011;13329;48.402;11.718;2022-11-04T16:26:06;3.73;;;1.53;;
25391;SDS011;13329;48.402;11.718;2022-11-04T16:28:36;2.57;;;1.27;;
25391;SDS011;13329;48.402;11.718;2022-11-04T16:31:03;2.67;;;1.42;;
25391;SDS011;13329;48.402;11.718;2022-11-04T16:33:29;1.45;;;1.02;;
25391;SDS011;13329;48.402;11.718;2022-11-04T16:35:54;2.28;;;1.25;;
25391;SDS011;13329;48.402;11.718;2022-11-04T16:38:19;2.97;;;1.30;;
25391;SDS011;13329;48.402;11.718;2022-11-04T16:40:45;3.57;;;1.70;;
25391;SDS011;13329;48.402;11.718;2022-11-04T16:43:11;6.75;;;2.33;;
25391;SDS011;13329;48.402;11.718;2022-11-04T16:45:37;5.85;;;2.13;;
25391;SDS011;13329;48.402;11.718;2022-11-04T16:48:02;3.05;;;2.08;;
25391;SDS011;13329;48.402;11.718;2022-11-04T16:50:28;2.35;;;1.60;;
25391;SDS011;13329;48.402;11.718;2022-11-04T16:52:55;2.33;;;1.65;;
25391;SDS011;13329;48.402;11.718;2022-11-04T16:55:21;3.83;;;1.70;;
25391;SDS011;13329;48.402;11.718;2022-11-04T16:57:48;27.88;;;5.72;;
25391;SDS011;13329;48.402;11.718;2022-11-04T17:00:20;3.65;;;1.67;;
25391;SDS011;13329;48.402;11.718;2022-11-04T17:02:46;4.68;;;2.15;;
25391;SDS011;13329;48.402;11.718;2022-11-04T17:05:11;3.88;;;1.88;;
25391;SDS011;13329;48.402;11.718;2022-11-04T17:07:37;3.57;;;2.00;;
25391;SDS011;13329;48.402;11.718;2022-11-04T17:10:03;4.38;;;2.45;;
25391;SDS011;13329;48.402;11.718;2022-11-04T17:12:28;6.05;;;2.92;;
25391;SDS011;13329;48.402;11.718;2022-11-04T17:14:53;6.47;;;3.60;;